AirNav   Everest Fuels
 
 1608 users online  

67AK South Hollywood Airport
Wasilla, Alaska, USA

GOING TO WASILLA?


FAA INFORMATION EFFECTIVE 18 JULY 2019

Location

FAA Identifier: 67AK
Lat/Long: 61-32-04.7000N / 149-40-12.3600W
61-32.078333N / 149-40.206000W
61.5346389 / -149.6701000
(estimated)
Elevation: 375 ft. / 114 m (estimated)
From city: 5 miles W of WASILLA, AK
Time zone: UTC -8 (UTC -9 during Standard Time)
Zip code: 99652

Airport Operations

Airport use: Private use. Permission required prior to landing
Activation date: 05/2004
Control tower: no
ARTCC: ANCHORAGE CENTER
FSS: KENAI FLIGHT SERVICE STATION [907-283-8469]
Attendance: UNATNDD
Segmented circle: no

Airport Communications

CTAF: 122.8
WX AWOS-3P at IYS (4 nm NE): 135.25 (907-373-3801)
WX AWOS-3P at BCV (8 nm SE): 135.55 (907-688-0826)
WX AWOS-3 at FRN (16 nm S): 134.25 or 118.525 (907-384-0132)
WX ASOS at PAQ (17 nm E): 134.75 (907-746-6675)
WX ASOS at MRI (20 nm S): 124.25 (907-271-5277)

Nearby radio navigation aids

VOR radial/distance  VOR name  Freq  Var
BGQr085/8.7BIG LAKE VORTAC112.5019E
TEDr003/23.5ANCHORAGE VOR/DME113.1518E

 
NDB name  Hdg/Dist  Freq  Var  ID
CAMPBELL LAKE010/24.433816ECMQ -.-. -- --.-

Airport Services

Runway Information

Runway E/W

Dimensions: 2640 x 240 ft. / 805 x 73 m
Surface: gravel
RUNWAY E  RUNWAY W
Traffic pattern: leftleft
Obstructions: 40 ft. trees40 ft. trees

Airport Ownership and Management from official FAA records

Ownership: Privately-owned
Owner: CROSS CREEK, INC
BOX 870948
WASILLA, AK 99687
Phone 907-376-2697
Manager: RODNEY WILLIS
4247 S EIDER CIR.
WASILLA, AK 99654
Phone (907) 357-5847

Airport Operational Statistics

Aircraft based on the field: 7
Single engine airplanes: 6
Helicopters: 1
    

Instrument Procedures

There are no published instrument procedures at 67AK.

Some nearby airports with instrument procedures:

PAGQ - Big Lake Airport (4 nm W)
PAWS - Wasilla Airport (4 nm NE)
PAFR - Bryant Army Airfield Heliport (16 nm S)
PAAQ - Warren "Bud" Woods Palmer Municipal Airport (17 nm E)
PAUO - Willow Airport (17 nm NW)
PAED - Elmendorf Air Force Base (17 nm S)
PAMR - Merrill Field Airport (20 nm S)
 
Loc | Ops | Rwys | IFR | FBO | Links
Com | Nav | Svcs | Stats | Notes

Crowley
 
Area around 67AK (South Hollywood Airport)
 
Road maps at: MapQuest Bing Google
 
Aerial photo
WARNING: Photo may not be current or correct
Aerial photo of 67AK (South Hollywood Airport)
Do you have a better or more recent aerial photo of South Hollywood Airport that you would like to share? If so, please send us your photo.

 
Sectional chart

 
Airport distance calculator
Flying to South Hollywood Airport? Find the distance to fly.

From to 67AK

Sunrise and sunset
Times for 18-Jul-2019
 Local
(UTC-8)
 Zulu
(UTC)
Morning civil twilight03:2511:25
Sunrise04:5512:55
Sunset23:1507:15
Evening civil twilight00:4508:45

Current date and time
Zulu (UTC)  18-Jul-2019 20:33:46
Local (UTC-8)  18-Jul-2019 12:33:46
 
METAR
PABV 
8nm SE 
181956Z AUTO 30003KT 10SM CLR 18/11 A2977 RMK AO2 SLP087 T01830106
PAFR 
16nm S 
181958Z AUTO 20008KT 6SM HZ CLR 21/10 A2974 RMK AO2 SLP076 T02070103 $
PAAQ 
17nm E 
181953Z 13005KT 10SM CLR 20/11 A2976 RMK AO2 SLP077 T02000111
PAED 
17nm S 
181956Z VRB03KT 6SM FU SCT200 22/11 A2978 RMK SLPNO WND DATA ESTMD ALSTG ESTMD RVRNO $
PAMR 
20nm S 
181953Z 32005KT 6SM HZ FU CLR 22/11 A2976 RMK AO2 SLP076 T02220111
TAF
PAAQ 
17nm E 
181720Z 1818/1918 VRB05KT P6SM BKN250 FM190100 18006KT P6SM VCSH SCT060 SCT120 FM190800 VRB05KT P6SM SCT060 BKN150
PAED 
17nm S 
181900Z 1819/2001 27006KT 9000 FU FEW080 QNH2975INS BECMG 1904/1905 18006KT 9000 FU FEW150 QNH2992INS TX24/1903Z TN15/1912Z
NOTAMs
Click for the latest NOTAMs
NOTAMs are issued by the DoD/FAA and will open in a separate window not controlled by AirNav.

 

 
 

Would you like to see your business listed on this page?

 If your business provides an interesting product or service to pilots, flight crews, aircraft, or users of the South Hollywood Airport, you should consider listing it here.  To start the listing process, click on the button below
 
Add a business
 

Other Pages about South Hollywood Airport

Update a link
 
Copyright © AirNav, LLC. All rights reserved. Privacy Policy  Contact